sensor_id;sensor_type;location;lat;lon;timestamp;P1;durP1;ratioP1;P2;durP2;ratioP2
26484;SDS011;18083;50.560;7.262;2022-12-16T00:00:13;54.80;;;23.47;;
26484;SDS011;18083;50.560;7.262;2022-12-16T00:02:41;53.30;;;24.00;;
26484;SDS011;18083;50.560;7.262;2022-12-16T00:05:08;54.83;;;23.17;;
26484;SDS011;18083;50.560;7.262;2022-12-16T00:07:36;60.50;;;22.60;;
26484;SDS011;18083;50.560;7.262;2022-12-16T00:10:03;55.13;;;23.00;;
26484;SDS011;18083;50.560;7.262;2022-12-16T00:12:31;67.93;;;23.30;;
26484;SDS011;18083;50.560;7.262;2022-12-16T00:14:58;78.37;;;23.43;;
26484;SDS011;18083;50.560;7.262;2022-12-16T00:17:25;61.33;;;24.97;;
26484;SDS011;18083;50.560;7.262;2022-12-16T00:19:53;60.40;;;24.73;;
26484;SDS011;18083;50.560;7.262;2022-12-16T00:22:21;63.73;;;23.17;;
26484;SDS011;18083;50.560;7.262;2022-12-16T00:24:48;68.73;;;26.20;;
26484;SDS011;18083;50.560;7.262;2022-12-16T00:27:15;65.80;;;23.27;;
26484;SDS011;18083;50.560;7.262;2022-12-16T00:29:43;64.27;;;25.30;;
26484;SDS011;18083;50.560;7.262;2022-12-16T00:32:10;74.03;;;24.27;;
26484;SDS011;18083;50.560;7.262;2022-12-16T00:34:38;68.50;;;25.03;;
26484;SDS011;18083;50.560;7.262;2022-12-16T00:37:05;63.63;;;26.37;;
26484;SDS011;18083;50.560;7.262;2022-12-16T00:39:32;56.13;;;25.47;;
26484;SDS011;18083;50.560;7.262;2022-12-16T00:42:00;58.63;;;22.80;;
26484;SDS011;18083;50.560;7.262;2022-12-16T00:44:27;66.73;;;23.30;;
26484;SDS011;18083;50.560;7.262;2022-12-16T00:46:54;59.40;;;23.23;;
26484;SDS011;18083;50.560;7.262;2022-12-16T00:49:22;52.30;;;21.13;;
26484;SDS011;18083;50.560;7.262;2022-12-16T00:51:49;61.00;;;23.33;;
26484;SDS011;18083;50.560;7.262;2022-12-16T00:54:16;57.73;;;24.23;;
26484;SDS011;18083;50.560;7.262;2022-12-16T00:56:44;56.97;;;22.47;;
26484;SDS011;18083;50.560;7.262;2022-12-16T00:59:11;62.23;;;23.67;;
26484;SDS011;18083;50.560;7.262;2022-12-16T01:01:38;60.63;;;24.73;;
26484;SDS011;18083;50.560;7.262;2022-12-16T01:04:06;51.03;;;22.30;;
26484;SDS011;18083;50.560;7.262;2022-12-16T01:06:33;63.47;;;23.87;;
26484;SDS011;18083;50.560;7.262;2022-12-16T01:09:00;63.77;;;22.30;;
26484;SDS011;18083;50.560;7.262;2022-12-16T01:11:28;57.87;;;22.43;;
26484;SDS011;18083;50.560;7.262;2022-12-16T01:13:55;55.10;;;22.70;;
26484;SDS011;18083;50.560;7.262;2022-12-16T01:16:22;53.80;;;21.10;;
26484;SDS011;18083;50.560;7.262;2022-12-16T01:18:50;59.70;;;21.57;;
26484;SDS011;18083;50.560;7.262;2022-12-16T01:21:18;59.23;;;22.00;;
26484;SDS011;18083;50.560;7.262;2022-12-16T01:23:46;61.90;;;23.67;;
26484;SDS011;18083;50.560;7.262;2022-12-16T01:26:15;50.83;;;22.43;;
26484;SDS011;18083;50.560;7.262;2022-12-16T01:28:43;56.37;;;24.80;;
26484;SDS011;18083;50.560;7.262;2022-12-16T01:31:10;48.67;;;21.73;;
26484;SDS011;18083;50.560;7.262;2022-12-16T01:33:38;51.20;;;23.57;;
26484;SDS011;18083;50.560;7.262;2022-12-16T01:36:06;54.80;;;20.80;;
26484;SDS011;18083;50.560;7.262;2022-12-16T01:38:34;64.67;;;24.93;;
26484;SDS011;18083;50.560;7.262;2022-12-16T01:41:02;56.07;;;21.90;;
26484;SDS011;18083;50.560;7.262;2022-12-16T01:43:31;55.90;;;20.47;;
26484;SDS011;18083;50.560;7.262;2022-12-16T01:48:42;47.00;;;20.60;;
26484;SDS011;18083;50.560;7.262;2022-12-16T01:51:10;45.43;;;19.80;;
26484;SDS011;18083;50.560;7.262;2022-12-16T01:53:37;59.13;;;20.53;;
26484;SDS011;18083;50.560;7.262;2022-12-16T01:56:05;41.40;;;18.40;;
26484;SDS011;18083;50.560;7.262;2022-12-16T01:58:33;55.30;;;18.57;;
26484;SDS011;18083;50.560;7.262;2022-12-16T02:01:00;49.87;;;20.97;;
26484;SDS011;18083;50.560;7.262;2022-12-16T02:03:29;61.17;;;21.67;;
26484;SDS011;18083;50.560;7.262;2022-12-16T02:05:58;53.10;;;20.23;;
26484;SDS011;18083;50.560;7.262;2022-12-16T02:08:25;45.97;;;19.03;;
26484;SDS011;18083;50.560;7.262;2022-12-16T02:11:07;52.00;;;20.73;;
26484;SDS011;18083;50.560;7.262;2022-12-16T02:13:37;53.90;;;21.97;;
26484;SDS011;18083;50.560;7.262;2022-12-16T02:28:56;51.53;;;22.00;;
26484;SDS011;18083;50.560;7.262;2022-12-16T02:31:35;36.03;;;17.87;;
26484;SDS011;18083;50.560;7.262;2022-12-16T02:34:09;45.10;;;20.43;;
26484;SDS011;18083;50.560;7.262;2022-12-16T02:39:17;44.00;;;19.60;;
26484;SDS011;18083;50.560;7.262;2022-12-16T02:41:56;46.73;;;20.00;;
26484;SDS011;18083;50.560;7.262;2022-12-16T02:44:30;40.03;;;18.70;;
26484;SDS011;18083;50.560;7.262;2022-12-16T02:46:53;49.50;;;17.93;;
26484;SDS011;18083;50.560;7.262;2022-12-16T02:51:49;37.60;;;16.30;;
26484;SDS011;18083;50.560;7.262;2022-12-16T02:54:16;44.23;;;19.50;;
26484;SDS011;18083;50.560;7.262;2022-12-16T02:56:57;39.57;;;15.50;;
26484;SDS011;18083;50.560;7.262;2022-12-16T02:59:40;44.00;;;19.37;;
26484;SDS011;18083;50.560;7.262;2022-12-16T03:02:14;37.83;;;18.00;;
26484;SDS011;18083;50.560;7.262;2022-12-16T03:04:42;39.70;;;18.70;;
26484;SDS011;18083;50.560;7.262;2022-12-16T03:07:10;38.37;;;19.17;;
26484;SDS011;18083;50.560;7.262;2022-12-16T03:09:38;48.53;;;16.37;;
26484;SDS011;18083;50.560;7.262;2022-12-16T03:12:08;45.57;;;18.07;;
26484;SDS011;18083;50.560;7.262;2022-12-16T03:14:36;40.83;;;17.57;;
26484;SDS011;18083;50.560;7.262;2022-12-16T03:17:05;47.93;;;20.80;;
26484;SDS011;18083;50.560;7.262;2022-12-16T03:19:33;50.83;;;17.73;;
26484;SDS011;18083;50.560;7.262;2022-12-16T03:22:05;55.17;;;19.30;;
26484;SDS011;18083;50.560;7.262;2022-12-16T03:24:31;52.67;;;20.17;;
26484;SDS011;18083;50.560;7.262;2022-12-16T03:27:11;53.27;;;18.37;;
26484;SDS011;18083;50.560;7.262;2022-12-16T03:32:07;49.93;;;19.17;;
26484;SDS011;18083;50.560;7.262;2022-12-16T03:34:39;54.00;;;18.60;;
26484;SDS011;18083;50.560;7.262;2022-12-16T03:37:03;43.53;;;19.33;;
26484;SDS011;18083;50.560;7.262;2022-12-16T03:39:32;39.20;;;18.27;;
26484;SDS011;18083;50.560;7.262;2022-12-16T03:42:00;38.43;;;18.90;;
26484;SDS011;18083;50.560;7.262;2022-12-16T03:44:28;47.73;;;18.43;;
26484;SDS011;18083;50.560;7.262;2022-12-16T03:46:56;55.07;;;17.83;;
26484;SDS011;18083;50.560;7.262;2022-12-16T03:49:24;58.50;;;19.10;;
26484;SDS011;18083;50.560;7.262;2022-12-16T03:51:52;53.33;;;20.27;;
26484;SDS011;18083;50.560;7.262;2022-12-16T03:54:20;37.13;;;16.40;;
26484;SDS011;18083;50.560;7.262;2022-12-16T03:56:48;45.27;;;18.40;;
26484;SDS011;18083;50.560;7.262;2022-12-16T03:59:16;52.53;;;19.10;;
26484;SDS011;18083;50.560;7.262;2022-12-16T04:01:43;42.03;;;18.97;;
26484;SDS011;18083;50.560;7.262;2022-12-16T04:04:11;51.13;;;19.67;;
26484;SDS011;18083;50.560;7.262;2022-12-16T04:06:38;41.37;;;17.47;;
26484;SDS011;18083;50.560;7.262;2022-12-16T04:09:05;41.10;;;18.27;;
26484;SDS011;18083;50.560;7.262;2022-12-16T04:11:33;58.83;;;21.23;;
26484;SDS011;18083;50.560;7.262;2022-12-16T04:14:18;51.67;;;17.53;;
26484;SDS011;18083;50.560;7.262;2022-12-16T04:17:03;45.10;;;18.07;;
26484;SDS011;18083;50.560;7.262;2022-12-16T04:19:49;46.27;;;17.63;;
26484;SDS011;18083;50.560;7.262;2022-12-16T04:22:36;80.83;;;18.60;;
26484;SDS011;18083;50.560;7.262;2022-12-16T04:25:23;58.77;;;20.43;;
26484;SDS011;18083;50.560;7.262;2022-12-16T04:27:50;78.73;;;22.67;;
26484;SDS011;18083;50.560;7.262;2022-12-16T04:30:18;61.13;;;20.70;;
26484;SDS011;18083;50.560;7.262;2022-12-16T04:32:53;44.20;;;19.30;;
26484;SDS011;18083;50.560;7.262;2022-12-16T04:35:38;53.90;;;19.27;;
26484;SDS011;18083;50.560;7.262;2022-12-16T04:38:23;43.60;;;16.63;;
26484;SDS011;18083;50.560;7.262;2022-12-16T04:41:09;38.80;;;16.30;;
26484;SDS011;18083;50.560;7.262;2022-12-16T04:43:54;27.70;;;15.27;;
26484;SDS011;18083;50.560;7.262;2022-12-16T04:46:39;36.27;;;16.13;;
26484;SDS011;18083;50.560;7.262;2022-12-16T04:49:24;37.40;;;17.17;;
26484;SDS011;18083;50.560;7.262;2022-12-16T04:52:10;34.33;;;15.30;;
26484;SDS011;18083;50.560;7.262;2022-12-16T04:54:55;44.63;;;19.10;;
26484;SDS011;18083;50.560;7.262;2022-12-16T04:57:42;42.93;;;16.20;;
26484;SDS011;18083;50.560;7.262;2022-12-16T05:00:27;31.97;;;15.80;;
26484;SDS011;18083;50.560;7.262;2022-12-16T05:03:12;39.37;;;15.57;;
26484;SDS011;18083;50.560;7.262;2022-12-16T05:05:57;28.53;;;15.10;;
26484;SDS011;18083;50.560;7.262;2022-12-16T05:08:42;30.23;;;14.03;;
26484;SDS011;18083;50.560;7.262;2022-12-16T05:11:27;28.10;;;13.17;;
26484;SDS011;18083;50.560;7.262;2022-12-16T05:14:12;48.30;;;17.63;;
26484;SDS011;18083;50.560;7.262;2022-12-16T05:16:57;43.97;;;17.87;;
26484;SDS011;18083;50.560;7.262;2022-12-16T05:19:42;34.63;;;14.77;;
26484;SDS011;18083;50.560;7.262;2022-12-16T05:22:27;31.40;;;13.43;;
26484;SDS011;18083;50.560;7.262;2022-12-16T05:25:12;36.40;;;15.33;;
26484;SDS011;18083;50.560;7.262;2022-12-16T05:27:58;55.33;;;23.43;;
26484;SDS011;18083;50.560;7.262;2022-12-16T05:30:42;48.47;;;17.77;;
26484;SDS011;18083;50.560;7.262;2022-12-16T05:33:28;48.23;;;20.73;;
26484;SDS011;18083;50.560;7.262;2022-12-16T05:35:59;68.60;;;25.53;;
26484;SDS011;18083;50.560;7.262;2022-12-16T05:38:44;44.13;;;16.50;;
26484;SDS011;18083;50.560;7.262;2022-12-16T05:41:30;35.53;;;15.67;;
26484;SDS011;18083;50.560;7.262;2022-12-16T05:44:15;44.27;;;17.50;;
26484;SDS011;18083;50.560;7.262;2022-12-16T05:47:00;47.37;;;21.90;;
26484;SDS011;18083;50.560;7.262;2022-12-16T05:49:45;50.90;;;17.17;;
26484;SDS011;18083;50.560;7.262;2022-12-16T05:52:30;43.80;;;16.33;;
26484;SDS011;18083;50.560;7.262;2022-12-16T05:55:16;39.77;;;16.27;;
26484;SDS011;18083;50.560;7.262;2022-12-16T05:58:01;34.23;;;14.57;;
26484;SDS011;18083;50.560;7.262;2022-12-16T06:00:46;42.70;;;16.57;;
26484;SDS011;18083;50.560;7.262;2022-12-16T06:03:31;39.57;;;15.73;;
26484;SDS011;18083;50.560;7.262;2022-12-16T06:06:16;36.53;;;14.47;;
26484;SDS011;18083;50.560;7.262;2022-12-16T06:09:01;44.17;;;16.10;;
26484;SDS011;18083;50.560;7.262;2022-12-16T06:11:46;33.80;;;14.70;;
26484;SDS011;18083;50.560;7.262;2022-12-16T06:14:31;40.00;;;15.10;;
26484;SDS011;18083;50.560;7.262;2022-12-16T06:17:16;38.97;;;16.80;;
26484;SDS011;18083;50.560;7.262;2022-12-16T06:20:01;48.47;;;17.67;;
26484;SDS011;18083;50.560;7.262;2022-12-16T06:22:50;60.30;;;25.30;;
26484;SDS011;18083;50.560;7.262;2022-12-16T06:25:35;50.57;;;28.40;;
26484;SDS011;18083;50.560;7.262;2022-12-16T06:28:21;78.77;;;31.77;;
26484;SDS011;18083;50.560;7.262;2022-12-16T06:31:05;53.77;;;25.43;;
26484;SDS011;18083;50.560;7.262;2022-12-16T06:33:51;50.00;;;19.83;;
26484;SDS011;18083;50.560;7.262;2022-12-16T06:36:36;38.33;;;18.30;;
26484;SDS011;18083;50.560;7.262;2022-12-16T06:39:25;46.10;;;20.03;;
26484;SDS011;18083;50.560;7.262;2022-12-16T06:42:08;93.37;;;32.40;;
26484;SDS011;18083;50.560;7.262;2022-12-16T06:44:53;47.20;;;21.60;;
26484;SDS011;18083;50.560;7.262;2022-12-16T06:47:38;49.40;;;19.90;;
26484;SDS011;18083;50.560;7.262;2022-12-16T06:50:23;50.43;;;16.77;;
26484;SDS011;18083;50.560;7.262;2022-12-16T06:53:08;53.13;;;19.30;;
26484;SDS011;18083;50.560;7.262;2022-12-16T06:55:53;53.03;;;18.90;;
26484;SDS011;18083;50.560;7.262;2022-12-16T06:58:39;55.67;;;20.40;;
26484;SDS011;18083;50.560;7.262;2022-12-16T07:01:24;56.27;;;20.50;;
26484;SDS011;18083;50.560;7.262;2022-12-16T07:04:09;44.47;;;17.77;;
26484;SDS011;18083;50.560;7.262;2022-12-16T07:06:54;52.63;;;18.43;;
26484;SDS011;18083;50.560;7.262;2022-12-16T07:09:40;44.50;;;19.53;;
26484;SDS011;18083;50.560;7.262;2022-12-16T07:12:25;132.23;;;46.47;;
26484;SDS011;18083;50.560;7.262;2022-12-16T07:18:14;621.23;;;246.30;;
26484;SDS011;18083;50.560;7.262;2022-12-16T07:20:59;563.07;;;219.60;;
26484;SDS011;18083;50.560;7.262;2022-12-16T07:23:44;414.63;;;141.07;;
26484;SDS011;18083;50.560;7.262;2022-12-16T07:26:29;294.57;;;100.60;;
26484;SDS011;18083;50.560;7.262;2022-12-16T07:29:14;238.23;;;94.50;;
26484;SDS011;18083;50.560;7.262;2022-12-16T07:31:59;213.80;;;81.00;;
26484;SDS011;18083;50.560;7.262;2022-12-16T07:34:44;176.53;;;63.53;;
26484;SDS011;18083;50.560;7.262;2022-12-16T07:37:29;126.93;;;53.03;;
26484;SDS011;18083;50.560;7.262;2022-12-16T07:40:14;83.00;;;36.90;;
26484;SDS011;18083;50.560;7.262;2022-12-16T07:42:59;79.57;;;35.17;;
26484;SDS011;18083;50.560;7.262;2022-12-16T07:45:44;65.73;;;30.53;;
26484;SDS011;18083;50.560;7.262;2022-12-16T07:48:29;61.70;;;22.30;;
26484;SDS011;18083;50.560;7.262;2022-12-16T07:51:14;57.30;;;25.97;;
26484;SDS011;18083;50.560;7.262;2022-12-16T07:53:59;64.23;;;27.97;;
26484;SDS011;18083;50.560;7.262;2022-12-16T07:56:44;42.03;;;22.57;;
26484;SDS011;18083;50.560;7.262;2022-12-16T07:59:29;37.40;;;17.87;;
26484;SDS011;18083;50.560;7.262;2022-12-16T08:02:14;41.07;;;17.73;;
26484;SDS011;18083;50.560;7.262;2022-12-16T08:04:59;54.30;;;17.03;;
26484;SDS011;18083;50.560;7.262;2022-12-16T08:07:45;41.20;;;17.73;;
26484;SDS011;18083;50.560;7.262;2022-12-16T08:10:30;39.33;;;16.13;;
26484;SDS011;18083;50.560;7.262;2022-12-16T08:13:15;33.53;;;15.13;;
26484;SDS011;18083;50.560;7.262;2022-12-16T08:15:59;43.47;;;19.07;;
26484;SDS011;18083;50.560;7.262;2022-12-16T08:18:44;178.33;;;67.10;;
26484;SDS011;18083;50.560;7.262;2022-12-16T08:21:30;62.70;;;29.73;;
26484;SDS011;18083;50.560;7.262;2022-12-16T08:24:14;63.93;;;28.60;;
26484;SDS011;18083;50.560;7.262;2022-12-16T08:26:59;52.47;;;25.33;;
26484;SDS011;18083;50.560;7.262;2022-12-16T08:29:44;40.67;;;20.50;;
26484;SDS011;18083;50.560;7.262;2022-12-16T08:32:29;49.47;;;24.10;;
26484;SDS011;18083;50.560;7.262;2022-12-16T08:35:15;56.50;;;27.63;;
26484;SDS011;18083;50.560;7.262;2022-12-16T08:37:59;66.23;;;27.43;;
26484;SDS011;18083;50.560;7.262;2022-12-16T08:40:45;75.60;;;34.50;;
26484;SDS011;18083;50.560;7.262;2022-12-16T08:43:30;63.17;;;25.47;;
26484;SDS011;18083;50.560;7.262;2022-12-16T08:46:15;53.97;;;26.83;;
26484;SDS011;18083;50.560;7.262;2022-12-16T08:49:00;51.77;;;25.17;;
26484;SDS011;18083;50.560;7.262;2022-12-16T08:51:45;75.70;;;33.17;;
26484;SDS011;18083;50.560;7.262;2022-12-16T08:54:30;66.90;;;31.93;;
26484;SDS011;18083;50.560;7.262;2022-12-16T08:57:16;67.97;;;31.20;;
26484;SDS011;18083;50.560;7.262;2022-12-16T09:00:01;60.27;;;31.40;;
26484;SDS011;18083;50.560;7.262;2022-12-16T09:02:46;54.93;;;25.63;;
26484;SDS011;18083;50.560;7.262;2022-12-16T09:05:31;44.70;;;22.80;;
26484;SDS011;18083;50.560;7.262;2022-12-16T09:08:16;35.97;;;18.77;;
26484;SDS011;18083;50.560;7.262;2022-12-16T09:11:01;40.30;;;18.97;;
26484;SDS011;18083;50.560;7.262;2022-12-16T09:13:46;32.50;;;18.53;;
26484;SDS011;18083;50.560;7.262;2022-12-16T09:16:31;31.60;;;17.37;;
26484;SDS011;18083;50.560;7.262;2022-12-16T09:19:16;33.53;;;16.90;;
26484;SDS011;18083;50.560;7.262;2022-12-16T09:22:01;35.53;;;16.40;;
26484;SDS011;18083;50.560;7.262;2022-12-16T09:24:46;31.83;;;16.97;;
26484;SDS011;18083;50.560;7.262;2022-12-16T09:27:31;34.30;;;16.97;;
26484;SDS011;18083;50.560;7.262;2022-12-16T09:30:16;40.63;;;18.97;;
26484;SDS011;18083;50.560;7.262;2022-12-16T09:33:01;35.13;;;19.00;;
26484;SDS011;18083;50.560;7.262;2022-12-16T09:35:46;34.87;;;17.77;;
26484;SDS011;18083;50.560;7.262;2022-12-16T09:38:32;35.40;;;17.83;;
26484;SDS011;18083;50.560;7.262;2022-12-16T09:47:01;35.70;;;20.23;;
26484;SDS011;18083;50.560;7.262;2022-12-16T09:49:47;46.73;;;20.17;;
26484;SDS011;18083;50.560;7.262;2022-12-16T09:52:43;42.27;;;19.03;;
26484;SDS011;18083;50.560;7.262;2022-12-16T09:55:23;40.80;;;19.33;;
26484;SDS011;18083;50.560;7.262;2022-12-16T09:58:09;33.30;;;16.97;;
26484;SDS011;18083;50.560;7.262;2022-12-16T10:00:56;40.43;;;18.37;;
26484;SDS011;18083;50.560;7.262;2022-12-16T10:03:41;36.17;;;17.07;;
26484;SDS011;18083;50.560;7.262;2022-12-16T10:06:32;41.33;;;17.90;;
26484;SDS011;18083;50.560;7.262;2022-12-16T10:09:20;46.17;;;22.63;;
26484;SDS011;18083;50.560;7.262;2022-12-16T10:12:15;45.30;;;21.37;;
26484;SDS011;18083;50.560;7.262;2022-12-16T10:14:51;48.63;;;19.53;;
26484;SDS011;18083;50.560;7.262;2022-12-16T10:17:36;39.33;;;19.50;;
26484;SDS011;18083;50.560;7.262;2022-12-16T10:20:28;34.03;;;15.87;;
26484;SDS011;18083;50.560;7.262;2022-12-16T10:28:57;40.33;;;17.53;;
26484;SDS011;18083;50.560;7.262;2022-12-16T10:31:42;49.57;;;22.97;;
26484;SDS011;18083;50.560;7.262;2022-12-16T10:34:28;48.10;;;21.90;;
26484;SDS011;18083;50.560;7.262;2022-12-16T10:36:57;39.00;;;19.50;;
26484;SDS011;18083;50.560;7.262;2022-12-16T10:39:44;41.67;;;19.27;;
26484;SDS011;18083;50.560;7.262;2022-12-16T10:42:35;30.37;;;17.70;;
26484;SDS011;18083;50.560;7.262;2022-12-16T10:45:20;34.97;;;18.53;;
26484;SDS011;18083;50.560;7.262;2022-12-16T10:48:07;30.13;;;17.07;;
26484;SDS011;18083;50.560;7.262;2022-12-16T10:50:53;38.17;;;17.17;;
26484;SDS011;18083;50.560;7.262;2022-12-16T10:53:38;40.47;;;19.07;;
26484;SDS011;18083;50.560;7.262;2022-12-16T10:59:09;71.53;;;32.40;;
26484;SDS011;18083;50.560;7.262;2022-12-16T11:01:59;40.43;;;19.97;;
26484;SDS011;18083;50.560;7.262;2022-12-16T11:04:45;36.93;;;19.43;;
26484;SDS011;18083;50.560;7.262;2022-12-16T11:07:35;34.53;;;17.87;;
26484;SDS011;18083;50.560;7.262;2022-12-16T11:10:33;38.10;;;17.57;;
26484;SDS011;18083;50.560;7.262;2022-12-16T11:13:23;32.00;;;16.67;;
26484;SDS011;18083;50.560;7.262;2022-12-16T11:16:16;30.27;;;15.83;;
26484;SDS011;18083;50.560;7.262;2022-12-16T11:19:02;28.00;;;16.37;;
26484;SDS011;18083;50.560;7.262;2022-12-16T11:21:47;28.77;;;16.10;;
26484;SDS011;18083;50.560;7.262;2022-12-16T11:24:33;34.17;;;19.80;;
26484;SDS011;18083;50.560;7.262;2022-12-16T11:27:22;26.20;;;16.73;;
26484;SDS011;18083;50.560;7.262;2022-12-16T11:32:58;30.60;;;18.53;;
26484;SDS011;18083;50.560;7.262;2022-12-16T11:35:45;44.77;;;25.27;;
26484;SDS011;18083;50.560;7.262;2022-12-16T11:41:30;29.53;;;18.00;;
26484;SDS011;18083;50.560;7.262;2022-12-16T11:44:24;35.50;;;19.10;;
26484;SDS011;18083;50.560;7.262;2022-12-16T11:47:19;28.93;;;17.53;;
26484;SDS011;18083;50.560;7.262;2022-12-16T11:50:07;32.20;;;17.57;;
26484;SDS011;18083;50.560;7.262;2022-12-16T11:52:52;32.90;;;16.63;;
26484;SDS011;18083;50.560;7.262;2022-12-16T11:55:37;28.20;;;17.87;;
26484;SDS011;18083;50.560;7.262;2022-12-16T11:58:30;30.27;;;18.00;;
26484;SDS011;18083;50.560;7.262;2022-12-16T12:01:19;35.73;;;18.23;;
26484;SDS011;18083;50.560;7.262;2022-12-16T12:04:00;29.53;;;18.47;;
26484;SDS011;18083;50.560;7.262;2022-12-16T12:09:36;29.33;;;17.37;;
26484;SDS011;18083;50.560;7.262;2022-12-16T12:15:19;28.53;;;17.20;;
26484;SDS011;18083;50.560;7.262;2022-12-16T12:18:09;36.57;;;17.73;;
26484;SDS011;18083;50.560;7.262;2022-12-16T12:21:02;29.00;;;17.00;;
26484;SDS011;18083;50.560;7.262;2022-12-16T12:26:39;30.50;;;17.10;;
26484;SDS011;18083;50.560;7.262;2022-12-16T12:29:31;27.03;;;16.43;;
26484;SDS011;18083;50.560;7.262;2022-12-16T12:32:20;23.23;;;15.60;;
26484;SDS011;18083;50.560;7.262;2022-12-16T12:38:01;29.10;;;16.33;;
26484;SDS011;18083;50.560;7.262;2022-12-16T12:40:51;25.57;;;17.77;;
26484;SDS011;18083;50.560;7.262;2022-12-16T12:43:41;29.67;;;18.77;;
26484;SDS011;18083;50.560;7.262;2022-12-16T12:49:42;26.87;;;15.30;;
26484;SDS011;18083;50.560;7.262;2022-12-16T12:58:23;33.20;;;19.03;;
26484;SDS011;18083;50.560;7.262;2022-12-16T13:01:09;29.93;;;19.03;;
26484;SDS011;18083;50.560;7.262;2022-12-16T13:03:57;30.67;;;20.00;;
26484;SDS011;18083;50.560;7.262;2022-12-16T13:06:42;31.73;;;20.03;;
26484;SDS011;18083;50.560;7.262;2022-12-16T13:09:32;35.83;;;21.43;;
26484;SDS011;18083;50.560;7.262;2022-12-16T13:12:21;33.30;;;19.03;;
26484;SDS011;18083;50.560;7.262;2022-12-16T13:15:09;41.97;;;22.70;;
26484;SDS011;18083;50.560;7.262;2022-12-16T13:20:54;38.07;;;21.33;;
26484;SDS011;18083;50.560;7.262;2022-12-16T13:23:37;39.17;;;22.10;;
26484;SDS011;18083;50.560;7.262;2022-12-16T13:26:23;35.53;;;23.37;;
26484;SDS011;18083;50.560;7.262;2022-12-16T13:29:21;43.17;;;23.70;;
26484;SDS011;18083;50.560;7.262;2022-12-16T13:32:17;40.87;;;23.00;;
26484;SDS011;18083;50.560;7.262;2022-12-16T13:38:02;42.50;;;21.07;;
26484;SDS011;18083;50.560;7.262;2022-12-16T13:40:49;33.97;;;20.90;;
26484;SDS011;18083;50.560;7.262;2022-12-16T13:46:41;39.00;;;22.00;;
26484;SDS011;18083;50.560;7.262;2022-12-16T13:49:38;39.80;;;20.53;;
26484;SDS011;18083;50.560;7.262;2022-12-16T13:52:24;42.03;;;19.40;;
26484;SDS011;18083;50.560;7.262;2022-12-16T13:58:20;31.23;;;17.90;;
26484;SDS011;18083;50.560;7.262;2022-12-16T14:01:08;38.40;;;20.67;;
26484;SDS011;18083;50.560;7.262;2022-12-16T14:03:51;37.70;;;20.87;;
26484;SDS011;18083;50.560;7.262;2022-12-16T14:06:37;38.30;;;20.27;;
26484;SDS011;18083;50.560;7.262;2022-12-16T14:09:32;35.43;;;19.93;;
26484;SDS011;18083;50.560;7.262;2022-12-16T14:15:19;39.07;;;19.43;;
26484;SDS011;18083;50.560;7.262;2022-12-16T14:18:05;37.37;;;19.90;;
26484;SDS011;18083;50.560;7.262;2022-12-16T14:20:53;34.00;;;18.67;;
26484;SDS011;18083;50.560;7.262;2022-12-16T14:26:23;30.43;;;18.17;;
26484;SDS011;18083;50.560;7.262;2022-12-16T14:29:17;35.33;;;18.53;;
26484;SDS011;18083;50.560;7.262;2022-12-16T14:31:58;30.67;;;16.63;;
26484;SDS011;18083;50.560;7.262;2022-12-16T14:34:43;30.43;;;17.37;;
26484;SDS011;18083;50.560;7.262;2022-12-16T14:37:32;34.60;;;18.00;;
26484;SDS011;18083;50.560;7.262;2022-12-16T14:40:22;34.40;;;19.97;;
26484;SDS011;18083;50.560;7.262;2022-12-16T14:43:11;35.40;;;19.07;;
26484;SDS011;18083;50.560;7.262;2022-12-16T14:45:57;37.10;;;20.53;;
26484;SDS011;18083;50.560;7.262;2022-12-16T14:48:44;36.40;;;19.63;;
26484;SDS011;18083;50.560;7.262;2022-12-16T14:51:33;38.07;;;20.63;;
26484;SDS011;18083;50.560;7.262;2022-12-16T14:54:52;36.73;;;18.20;;
26484;SDS011;18083;50.560;7.262;2022-12-16T14:57:16;39.40;;;21.13;;
26484;SDS011;18083;50.560;7.262;2022-12-16T15:00:03;38.13;;;19.50;;
26484;SDS011;18083;50.560;7.262;2022-12-16T15:02:47;32.90;;;19.13;;
26484;SDS011;18083;50.560;7.262;2022-12-16T15:05:34;36.80;;;19.53;;
26484;SDS011;18083;50.560;7.262;2022-12-16T15:08:20;37.80;;;21.43;;
26484;SDS011;18083;50.560;7.262;2022-12-16T15:11:06;45.10;;;19.87;;
26484;SDS011;18083;50.560;7.262;2022-12-16T15:13:53;36.73;;;19.30;;
26484;SDS011;18083;50.560;7.262;2022-12-16T15:16:40;37.80;;;22.03;;
26484;SDS011;18083;50.560;7.262;2022-12-16T15:19:26;43.63;;;22.50;;
26484;SDS011;18083;50.560;7.262;2022-12-16T15:22:14;41.47;;;21.33;;
26484;SDS011;18083;50.560;7.262;2022-12-16T15:25:00;49.43;;;24.67;;
26484;SDS011;18083;50.560;7.262;2022-12-16T15:27:56;50.03;;;27.17;;
26484;SDS011;18083;50.560;7.262;2022-12-16T15:30:39;57.40;;;28.47;;
26484;SDS011;18083;50.560;7.262;2022-12-16T15:33:26;61.53;;;28.07;;
26484;SDS011;18083;50.560;7.262;2022-12-16T15:39:16;49.50;;;25.60;;
26484;SDS011;18083;50.560;7.262;2022-12-16T15:41:57;55.13;;;26.23;;
26484;SDS011;18083;50.560;7.262;2022-12-16T15:44:45;59.93;;;31.43;;
26484;SDS011;18083;50.560;7.262;2022-12-16T15:47:32;61.77;;;32.20;;
26484;SDS011;18083;50.560;7.262;2022-12-16T15:50:19;46.83;;;26.40;;
26484;SDS011;18083;50.560;7.262;2022-12-16T15:56:00;64.10;;;28.33;;
26484;SDS011;18083;50.560;7.262;2022-12-16T15:58:46;59.37;;;29.10;;
26484;SDS011;18083;50.560;7.262;2022-12-16T16:01:37;61.97;;;29.20;;
26484;SDS011;18083;50.560;7.262;2022-12-16T16:04:18;58.53;;;28.43;;
26484;SDS011;18083;50.560;7.262;2022-12-16T16:07:07;63.33;;;31.03;;
26484;SDS011;18083;50.560;7.262;2022-12-16T16:09:51;62.50;;;30.60;;
26484;SDS011;18083;50.560;7.262;2022-12-16T16:12:38;55.43;;;29.17;;
26484;SDS011;18083;50.560;7.262;2022-12-16T16:15:23;65.13;;;30.07;;
26484;SDS011;18083;50.560;7.262;2022-12-16T16:18:08;59.77;;;29.23;;
26484;SDS011;18083;50.560;7.262;2022-12-16T16:20:53;60.03;;;29.50;;
26484;SDS011;18083;50.560;7.262;2022-12-16T16:23:38;63.77;;;31.33;;
26484;SDS011;18083;50.560;7.262;2022-12-16T16:26:10;67.07;;;30.17;;
26484;SDS011;18083;50.560;7.262;2022-12-16T16:28:57;74.97;;;37.47;;
26484;SDS011;18083;50.560;7.262;2022-12-16T16:31:42;95.33;;;44.60;;
26484;SDS011;18083;50.560;7.262;2022-12-16T16:34:28;92.23;;;41.63;;
26484;SDS011;18083;50.560;7.262;2022-12-16T16:37:14;83.07;;;41.83;;
26484;SDS011;18083;50.560;7.262;2022-12-16T16:39:59;86.23;;;38.23;;
26484;SDS011;18083;50.560;7.262;2022-12-16T16:42:44;84.20;;;41.50;;
26484;SDS011;18083;50.560;7.262;2022-12-16T16:45:29;73.90;;;33.10;;
26484;SDS011;18083;50.560;7.262;2022-12-16T16:48:15;70.50;;;33.73;;
26484;SDS011;18083;50.560;7.262;2022-12-16T16:51:01;71.73;;;32.97;;
26484;SDS011;18083;50.560;7.262;2022-12-16T16:53:47;73.13;;;31.63;;
26484;SDS011;18083;50.560;7.262;2022-12-16T16:56:32;61.77;;;29.73;;
26484;SDS011;18083;50.560;7.262;2022-12-16T16:59:19;58.10;;;29.33;;
26484;SDS011;18083;50.560;7.262;2022-12-16T17:02:12;64.87;;;30.53;;
26484;SDS011;18083;50.560;7.262;2022-12-16T17:04:51;49.40;;;28.97;;
26484;SDS011;18083;50.560;7.262;2022-12-16T17:07:36;54.77;;;27.93;;
26484;SDS011;18083;50.560;7.262;2022-12-16T17:10:21;53.60;;;27.10;;
26484;SDS011;18083;50.560;7.262;2022-12-16T17:13:07;69.83;;;29.93;;